Time;durP1;ratioP1;P1;durP2;ratioP2;P2;SDS_P1;SDS_P2;PMS_P1;PMS_P2;Temp;Humidity;BMP_temperature;BMP_pressure;BME280_temperature;BME280_humidity;BME280_pressure;Samples;Min_cycle;Max_cycle;Signal;HPM_P1;HPM_P2
2023/05/31 00:04:22;;;;;;;3.05;1.42;;;19.70;55.90;;;;;;10086741;28;20558;-63
2023/05/31 00:09:12;;;;;;;4.45;1.40;;;19.60;56.20;;;;;;10097255;28;20029;-62
2023/05/31 00:14:03;;;;;;;3.17;1.83;;;19.50;56.30;;;;;;10067309;28;20053;-62
2023/05/31 00:18:53;;;;;;;3.63;1.35;;;19.50;56.40;;;;;;10082664;28;20556;-62
2023/05/31 00:23:44;;;;;;;2.20;1.20;;;19.40;56.60;;;;;;10101115;28;20025;-62
2023/05/31 00:28:35;;;;;;;3.40;1.27;;;19.40;56.80;;;;;;10094025;28;20248;-62
2023/05/31 00:33:25;;;;;;;1.98;1.40;;;19.30;56.90;;;;;;10101148;28;20032;-62
2023/05/31 00:38:16;;;;;;;2.67;1.10;;;19.20;57.20;;;;;;10100599;28;20126;-62
2023/05/31 00:43:07;;;;;;;2.92;1.40;;;19.20;57.30;;;;;;10100171;28;20029;-62
2023/05/31 00:48:00;;;;;;;2.83;1.60;;;19.10;57.40;;;;;;10095503;28;20388;-61
2023/05/31 00:52:54;;;;;;;4.18;1.55;;;19.00;57.80;;;;;;10099813;28;20032;-61
2023/05/31 00:57:45;;;;;;;3.95;1.45;;;19.00;57.80;;;;;;10099776;28;20048;-64
2023/05/31 01:02:37;;;;;;;2.33;1.25;;;18.90;57.90;;;;;;10081847;28;20134;-62
2023/05/31 01:07:28;;;;;;;4.18;2.08;;;18.90;58.00;;;;;;10100159;28;20017;-62
2023/05/31 01:12:43;;;;;;;3.75;1.20;;;18.90;58.20;;;;;;10098892;28;20410;-64
2023/05/31 01:18:09;;;;;;;3.63;1.40;;;18.90;58.60;;;;;;10089559;28;20067;-62
2023/05/31 01:23:12;;;;;;;2.10;1.20;;;18.80;58.70;;;;;;10098842;28;20037;-62
2023/05/31 01:28:07;;;;;;;2.80;1.20;;;18.60;59.10;;;;;;10092495;28;20073;-62
2023/05/31 01:33:00;;;;;;;4.20;1.13;;;18.50;59.00;;;;;;10098343;28;20017;-62
2023/05/31 01:37:51;;;;;;;2.28;1.05;;;18.40;59.30;;;;;;10098007;28;20037;-62
2023/05/31 01:42:43;;;;;;;2.75;0.85;;;18.40;59.50;;;;;;10090549;28;20395;-62
2023/05/31 01:47:34;;;;;;;3.25;1.45;;;18.30;60.10;;;;;;10097942;28;20082;-61
2023/05/31 01:52:26;;;;;;;3.10;1.33;;;18.20;60.40;;;;;;10077178;28;20072;-63
2023/05/31 01:57:18;;;;;;;2.45;1.20;;;18.10;60.80;;;;;;10093251;28;20280;-62
2023/05/31 02:02:09;;;;;;;3.08;1.00;;;17.90;61.00;;;;;;10097810;28;20052;-62
2023/05/31 02:07:00;;;;;;;2.08;1.63;;;17.90;61.50;;;;;;10098021;28;20024;-62
2023/05/31 02:11:50;;;;;;;2.08;1.20;;;18.00;61.30;;;;;;10097908;28;20340;-62
2023/05/31 02:16:41;;;;;;;3.15;1.40;;;17.90;61.50;;;;;;10090938;28;20065;-62
2023/05/31 02:21:37;;;;;;;4.18;1.10;;;18.00;61.40;;;;;;10097752;28;20489;-62
2023/05/31 02:26:28;;;;;;;4.93;1.42;;;17.90;61.70;;;;;;10097804;28;20025;-63
2023/05/31 02:31:19;;;;;;;2.20;1.42;;;17.90;61.80;;;;;;10073147;28;20032;-62
2023/05/31 02:36:11;;;;;;;2.20;1.35;;;17.80;61.90;;;;;;10110786;28;20502;-61
2023/05/31 02:41:01;;;;;;;5.32;1.60;;;17.80;61.90;;;;;;10079638;28;20395;-61
2023/05/31 02:45:52;;;;;;;2.47;1.40;;;17.80;62.00;;;;;;10079100;28;20029;-61
2023/05/31 02:50:43;;;;;;;2.03;1.20;;;17.70;62.30;;;;;;10099875;28;20025;-60
2023/05/31 02:55:33;;;;;;;4.05;1.30;;;17.60;62.60;;;;;;10104165;28;20129;-61
2023/05/31 03:00:25;;;;;;;2.38;1.50;;;17.50;62.80;;;;;;10085762;28;20025;-61
2023/05/31 03:05:16;;;;;;;4.63;1.30;;;17.50;62.80;;;;;;10083479;28;20040;-62
2023/05/31 03:10:08;;;;;;;1.98;1.30;;;17.40;63.10;;;;;;10094865;28;20391;-64
2023/05/31 03:14:59;;;;;;;4.10;1.63;;;17.40;63.50;;;;;;10069730;28;20061;-61
2023/05/31 03:19:49;;;;;;;2.70;1.25;;;17.30;63.80;;;;;;10103228;28;20025;-63
2023/05/31 03:24:40;;;;;;;4.90;1.73;;;17.20;63.90;;;;;;10103468;28;20041;-62
2023/05/31 03:29:31;;;;;;;3.33;1.20;;;17.30;63.80;;;;;;10078096;28;20036;-63
2023/05/31 03:34:22;;;;;;;2.30;1.20;;;17.20;64.20;;;;;;10095669;28;20034;-62
2023/05/31 03:39:13;;;;;;;2.38;1.13;;;17.10;64.70;;;;;;10097020;28;20036;-61
2023/05/31 03:44:03;;;;;;;3.95;1.35;;;17.10;64.40;;;;;;10083128;28;20493;-62
2023/05/31 03:48:54;;;;;;;2.17;1.40;;;17.10;64.50;;;;;;10098557;28;20044;-62
2023/05/31 03:53:45;;;;;;;3.97;1.40;;;17.20;64.60;;;;;;10089891;28;20622;-62
2023/05/31 03:58:35;;;;;;;2.85;1.65;;;17.10;64.80;;;;;;10102284;28;20044;-61
2023/05/31 04:03:27;;;;;;;3.20;1.45;;;17.10;65.20;;;;;;10101572;28;20029;-63
2023/05/31 04:08:18;;;;;;;3.20;1.13;;;17.00;65.40;;;;;;10093736;28;20048;-62
2023/05/31 04:13:08;;;;;;;3.15;1.48;;;17.10;65.30;;;;;;10090826;28;20080;-61
2023/05/31 04:17:59;;;;;;;3.53;1.88;;;17.20;65.30;;;;;;10099629;28;20405;-61
2023/05/31 04:22:50;;;;;;;2.50;1.25;;;17.10;65.50;;;;;;10083108;28;20048;-62
2023/05/31 04:27:40;;;;;;;2.95;1.48;;;17.00;65.90;;;;;;10096057;28;20503;-62
2023/05/31 04:32:34;;;;;;;3.30;1.20;;;17.00;65.80;;;;;;10089467;28;20021;-61
2023/05/31 04:37:28;;;;;;;6.57;1.63;;;17.00;65.70;;;;;;10115924;28;20044;-62
2023/05/31 04:42:19;;;;;;;3.72;1.20;;;17.10;65.80;;;;;;10069039;28;20028;-62
2023/05/31 04:47:09;;;;;;;3.00;1.70;;;17.00;66.30;;;;;;10083263;28;20045;-62
2023/05/31 04:52:00;;;;;;;2.03;1.05;;;16.90;66.70;;;;;;10100501;28;20021;-62
2023/05/31 04:56:51;;;;;;;2.28;1.15;;;16.90;66.80;;;;;;10064329;28;20049;-60
2023/05/31 05:01:41;;;;;;;2.92;1.58;;;17.10;66.40;;;;;;10095200;28;20020;-62
2023/05/31 05:06:33;;;;;;;3.13;1.40;;;17.10;66.40;;;;;;10079773;28;20428;-62
2023/05/31 05:11:25;;;;;;;4.43;1.85;;;17.20;66.60;;;;;;10086986;28;20036;-62
2023/05/31 05:16:15;;;;;;;4.90;1.35;;;17.10;66.70;;;;;;10097716;28;20041;-64
2023/05/31 05:21:06;;;;;;;4.13;1.67;;;17.10;67.10;;;;;;10098943;28;20033;-62
2023/05/31 05:25:57;;;;;;;4.00;1.20;;;17.20;67.40;;;;;;10096601;28;20112;-62
2023/05/31 05:30:48;;;;;;;2.38;1.38;;;17.10;67.80;;;;;;10092686;28;20025;-65
2023/05/31 05:35:38;;;;;;;1.90;1.27;;;17.10;67.60;;;;;;10098703;28;20037;-69
2023/05/31 05:40:29;;;;;;;3.13;1.25;;;17.20;67.80;;;;;;10064556;28;20029;-61
2023/05/31 05:45:20;;;;;;;3.42;1.67;;;17.20;67.70;;;;;;10087429;28;20021;-64
2023/05/31 05:50:11;;;;;;;3.97;1.25;;;17.40;67.70;;;;;;10069366;28;20035;-61
2023/05/31 05:55:02;;;;;;;3.08;1.60;;;17.30;68.20;;;;;;10072543;28;20183;-61
2023/05/31 05:59:53;;;;;;;4.05;1.60;;;17.20;68.00;;;;;;10097197;28;20061;-61
2023/05/31 06:04:44;;;;;;;3.55;1.65;;;17.40;68.10;;;;;;10099171;28;20036;-64
2023/05/31 06:09:34;;;;;;;4.68;1.33;;;17.40;68.30;;;;;;10112960;28;20482;-62
2023/05/31 06:14:25;;;;;;;2.47;1.27;;;17.50;68.20;;;;;;10094889;28;20339;-67
2023/05/31 06:19:15;;;;;;;4.18;1.48;;;17.50;68.10;;;;;;10093241;28;20037;-62
2023/05/31 06:24:06;;;;;;;2.25;1.05;;;17.60;68.10;;;;;;10074539;28;20037;-66
2023/05/31 06:29:00;;;;;;;2.92;1.60;;;17.60;68.40;;;;;;10099357;28;20024;-62
2023/05/31 06:33:50;;;;;;;3.13;1.77;;;17.60;68.70;;;;;;10082605;28;20375;-62
2023/05/31 06:38:41;;;;;;;2.83;1.35;;;17.70;68.40;;;;;;10087129;28;20116;-62
2023/05/31 06:43:32;;;;;;;3.17;1.15;;;17.80;68.30;;;;;;10104423;28;20035;-67
2023/05/31 06:48:22;;;;;;;7.00;1.52;;;17.90;68.00;;;;;;10104695;28;20116;-68
2023/05/31 06:53:13;;;;;;;2.97;1.58;;;18.10;67.80;;;;;;10104497;28;20021;-68
2023/05/31 06:58:03;;;;;;;1.48;1.33;;;18.30;67.60;;;;;;10103606;28;20037;-63
2023/05/31 07:02:54;;;;;;;5.22;1.70;;;18.30;67.60;;;;;;10075846;28;20507;-62
2023/05/31 07:07:45;;;;;;;4.90;1.92;;;18.30;67.70;;;;;;10078480;28;20032;-62
2023/05/31 07:12:36;;;;;;;5.40;1.48;;;18.40;67.80;;;;;;10118581;28;20048;-61
2023/05/31 07:17:26;;;;;;;3.00;1.80;;;18.40;67.60;;;;;;10102524;28;20048;-64
2023/05/31 07:22:17;;;;;;;5.82;1.95;;;18.50;67.50;;;;;;10092773;28;20017;-67
2023/05/31 07:27:08;;;;;;;3.67;1.38;;;18.70;67.40;;;;;;10082562;28;20057;-64
2023/05/31 07:31:59;;;;;;;3.60;1.70;;;18.80;67.10;;;;;;10104997;28;20392;-65
2023/05/31 07:36:50;;;;;;;2.42;1.33;;;18.90;67.00;;;;;;10101991;28;20116;-69
2023/05/31 07:41:40;;;;;;;1.70;1.25;;;19.10;66.90;;;;;;10102947;28;20112;-72
2023/05/31 07:46:31;;;;;;;2.83;1.20;;;19.20;66.70;;;;;;10102690;28;20111;-63
2023/05/31 07:51:21;;;;;;;5.00;1.30;;;19.10;66.70;;;;;;10102532;28;20483;-76
2023/05/31 07:56:13;;;;;;;2.50;1.95;;;19.30;66.50;;;;;;10103559;28;20041;-63
2023/05/31 08:01:04;;;;;;;2.53;1.35;;;19.40;66.40;;;;;;10089722;28;20018;-65
2023/05/31 08:05:55;;;;;;;6.05;1.42;;;19.50;66.40;;;;;;10066894;28;20498;-62
2023/05/31 08:10:45;;;;;;;3.90;1.67;;;19.50;66.40;;;;;;10101240;28;20032;-63
2023/05/31 08:15:39;;;;;;;5.60;2.58;;;19.60;66.10;;;;;;10094482;28;20051;-68
2023/05/31 08:20:29;;;;;;;3.20;1.33;;;19.80;65.90;;;;;;10082503;28;20029;-66
2023/05/31 08:25:22;;;;;;;8.70;1.90;;;19.90;65.80;;;;;;10101217;28;20029;-62
2023/05/31 08:30:12;;;;;;;2.63;1.60;;;20.10;65.60;;;;;;10086137;28;20104;-66
2023/05/31 08:35:06;;;;;;;3.72;1.80;;;20.10;65.30;;;;;;10099340;28;20124;-62
2023/05/31 08:39:56;;;;;;;2.83;1.48;;;20.30;65.20;;;;;;10100649;28;20032;-61
2023/05/31 08:44:47;;;;;;;4.40;1.50;;;20.70;65.00;;;;;;10087171;28;20117;-63
2023/05/31 08:49:40;;;;;;;5.63;1.38;;;20.70;64.90;;;;;;10082795;28;20437;-62
2023/05/31 08:54:31;;;;;;;4.82;1.92;;;20.80;64.80;;;;;;10100376;28;20055;-61
2023/05/31 08:59:22;;;;;;;3.33;1.50;;;20.80;64.60;;;;;;10095865;28;20052;-66
2023/05/31 09:04:15;;;;;;;3.22;1.60;;;21.00;64.50;;;;;;10115598;28;20021;-63
2023/05/31 09:09:08;;;;;;;2.72;1.45;;;21.10;64.50;;;;;;10099578;28;20446;-65
2023/05/31 09:13:59;;;;;;;3.97;1.73;;;21.30;64.20;;;;;;10078174;28;20090;-66
2023/05/31 09:19:04;;;;;;;2.88;1.73;;;21.50;64.10;;;;;;10098533;28;20072;-64
2023/05/31 09:23:59;;;;;;;5.20;2.40;;;21.40;64.20;;;;;;10057687;28;20101;-63
2023/05/31 09:28:54;;;;;;;4.57;1.40;;;21.70;64.00;;;;;;10071345;28;20013;-65
2023/05/31 09:33:47;;;;;;;4.57;2.17;;;21.80;63.90;;;;;;10117341;28;20057;-75
2023/05/31 09:38:39;;;;;;;3.30;2.60;;;22.00;63.90;;;;;;10099945;28;20037;-66
2023/05/31 09:43:29;;;;;;;6.47;2.10;;;21.90;63.80;;;;;;10078403;28;20029;-65
2023/05/31 09:48:20;;;;;;;2.30;1.88;;;22.10;63.80;;;;;;10090228;28;20020;-64
2023/05/31 09:53:17;;;;;;;2.95;1.67;;;22.10;63.90;;;;;;10099130;28;20386;-64
2023/05/31 09:58:08;;;;;;;3.72;2.10;;;22.40;63.70;;;;;;10093828;28;20087;-65
2023/05/31 10:03:01;;;;;;;3.25;1.67;;;22.30;63.60;;;;;;10105484;28;20025;-62
2023/05/31 10:07:53;;;;;;;4.57;2.00;;;22.50;63.60;;;;;;10101392;28;20024;-64
2023/05/31 10:12:57;;;;;;;4.53;1.90;;;22.70;63.50;;;;;;10066864;28;20072;-62
2023/05/31 10:18:09;;;;;;;4.00;2.00;;;22.90;63.20;;;;;;10100224;28;20037;-65
2023/05/31 10:23:02;;;;;;;3.95;2.10;;;22.90;63.10;;;;;;10105746;28;20060;-64
2023/05/31 10:27:55;;;;;;;7.15;1.85;;;23.10;63.10;;;;;;10101775;28;20079;-63
2023/05/31 10:32:53;;;;;;;5.55;1.85;;;23.20;62.90;;;;;;10098914;28;20025;-70
2023/05/31 10:37:45;;;;;;;3.65;2.10;;;23.30;62.70;;;;;;10105469;28;20044;-62
2023/05/31 10:42:55;;;;;;;3.60;1.85;;;23.40;62.50;;;;;;10105095;28;20383;-63
2023/05/31 10:47:50;;;;;;;5.47;1.83;;;23.60;62.20;;;;;;10098870;28;20439;-63
2023/05/31 10:52:41;;;;;;;;;;;23.60;61.80;;;;;;10108310;28;20403;-67
2023/05/31 10:57:35;;;;;;;2.72;1.60;;;23.50;61.90;;;;;;10104220;28;19913;-66
2023/05/31 11:02:26;;;;;;;3.17;2.03;;;23.50;61.70;;;;;;10091231;28;20438;-67
2023/05/31 11:07:25;;;;;;;3.63;2.08;;;23.70;61.30;;;;;;10085324;28;20556;-70
2023/05/31 11:12:33;;;;;;;5.03;1.83;;;24.00;60.60;;;;;;10103093;28;20055;-62
2023/05/31 11:17:24;;;;;;;5.63;1.98;;;24.00;59.80;;;;;;10089921;28;20040;-65
2023/05/31 11:22:16;;;;;;;2.60;1.85;;;24.00;60.10;;;;;;10102702;28;20025;-65
2023/05/31 11:27:11;;;;;;;4.35;1.92;;;24.20;59.70;;;;;;10103019;28;20426;-63
2023/05/31 11:32:02;;;;;;;4.38;2.25;;;24.30;59.40;;;;;;10097593;28;20148;-67
2023/05/31 11:36:55;;;;;;;4.38;1.92;;;24.40;59.10;;;;;;10102446;28;20268;-61
2023/05/31 11:41:46;;;;;;;5.45;2.30;;;24.40;59.00;;;;;;10103268;28;20028;-63
2023/05/31 11:46:45;;;;;;;6.45;1.80;;;24.50;58.80;;;;;;10102381;28;20411;-65
2023/05/31 11:51:38;;;;;;;4.97;1.92;;;24.60;58.00;;;;;;10097424;28;20061;-68
2023/05/31 11:56:36;;;;;;;4.38;1.77;;;24.60;58.20;;;;;;10102152;28;20033;-64
2023/05/31 12:01:27;;;;;;;4.55;2.30;;;24.80;57.90;;;;;;10086349;28;20022;-64
2023/05/31 12:06:17;;;;;;;6.47;1.67;;;24.90;57.60;;;;;;10084638;28;20674;-71
2023/05/31 12:11:08;;;;;;;3.10;1.80;;;25.20;57.70;;;;;;10105847;28;20086;-65
2023/05/31 12:15:59;;;;;;;3.38;1.70;;;25.40;57.30;;;;;;10101757;28;20049;-64
2023/05/31 12:20:49;;;;;;;5.40;1.90;;;25.60;56.90;;;;;;10117774;28;20025;-64
2023/05/31 12:25:50;;;;;;;6.65;1.83;;;25.90;56.70;;;;;;10101070;28;20167;-62
2023/05/31 12:30:43;;;;;;;4.80;1.80;;;26.10;55.40;;;;;;10095236;28;20032;-63
2023/05/31 12:35:40;;;;;;;1.83;1.38;;;26.50;56.20;;;;;;10082333;28;20048;-62
2023/05/31 12:40:31;;;;;;;4.30;1.90;;;27.00;55.60;;;;;;10097493;28;20020;-64
2023/05/31 12:45:21;;;;;;;8.48;2.20;;;27.30;56.20;;;;;;10074690;28;20459;-63
2023/05/31 12:50:12;;;;;;;2.65;2.13;;;27.50;55.60;;;;;;10100220;28;20086;-62
2023/05/31 12:55:04;;;;;;;4.28;1.48;;;27.80;55.10;;;;;;10078775;28;20041;-62
2023/05/31 13:00:05;;;;;;;7.43;2.40;;;28.60;54.50;;;;;;10094707;28;20028;-71
2023/05/31 13:04:56;;;;;;;6.88;2.95;;;29.60;53.30;;;;;;10094898;28;20018;-67
2023/05/31 13:09:47;;;;;;;4.45;1.95;;;29.90;52.60;;;;;;10065497;28;20017;-69
2023/05/31 13:14:37;;;;;;;2.58;1.42;;;30.30;52.00;;;;;;10098902;28;20045;-66
2023/05/31 13:19:28;;;;;;;4.30;1.85;;;30.90;51.30;;;;;;10080920;28;20033;-63
2023/05/31 13:24:19;;;;;;;6.97;2.72;;;31.40;50.60;;;;;;10098763;28;20506;-65
2023/05/31 13:29:10;;;;;;;4.22;1.70;;;31.30;50.10;;;;;;10076821;28;20048;-62
2023/05/31 13:34:00;;;;;;;3.40;1.60;;;31.80;49.90;;;;;;10098291;28;20109;-66
2023/05/31 13:38:52;;;;;;;6.57;1.83;;;32.20;49.30;;;;;;10098105;28;20033;-65
2023/05/31 13:43:43;;;;;;;3.33;1.67;;;32.10;48.80;;;;;;10098982;28;20543;-68
2023/05/31 13:48:34;;;;;;;2.40;2.00;;;32.60;49.20;;;;;;10098652;28;20104;-63
2023/05/31 13:53:24;;;;;;;6.50;1.93;;;33.10;47.80;;;;;;10099840;28;20025;-62
2023/05/31 13:58:16;;;;;;;4.57;2.17;;;32.80;47.50;;;;;;10098025;28;20037;-64
2023/05/31 14:03:07;;;;;;;2.78;1.65;;;32.90;46.80;;;;;;10082687;28;20044;-63
2023/05/31 14:07:59;;;;;;;2.50;1.53;;;32.60;46.50;;;;;;10058105;28;20037;-64
2023/05/31 14:12:49;;;;;;;4.72;2.10;;;32.60;45.90;;;;;;10089209;28;20053;-68
2023/05/31 14:17:40;;;;;;;4.43;1.80;;;32.80;45.90;;;;;;10095952;28;20033;-64
2023/05/31 14:22:31;;;;;;;5.67;2.17;;;32.80;45.60;;;;;;10095802;28;20459;-63
2023/05/31 14:27:22;;;;;;;2.77;1.57;;;32.90;45.10;;;;;;10095678;28;20092;-66
2023/05/31 14:32:14;;;;;;;7.60;2.17;;;32.70;45.20;;;;;;10093047;28;20083;-62
2023/05/31 14:37:05;;;;;;;5.03;2.60;;;32.60;45.00;;;;;;10076633;28;20037;-68
2023/05/31 14:41:57;;;;;;;3.38;2.10;;;32.60;45.00;;;;;;10097520;28;20514;-66
2023/05/31 14:46:47;;;;;;;;;;;32.50;44.80;;;;;;10101236;28;20431;-74
2023/05/31 14:51:39;;;;;;;3.53;1.80;;;32.30;43.70;;;;;;10088182;28;19913;-67
2023/05/31 14:56:29;;;;;;;3.47;1.70;;;32.30;44.40;;;;;;10104366;28;20343;-64
2023/05/31 15:01:20;;;;;;;5.97;2.30;;;32.60;44.30;;;;;;10104900;28;20033;-62
2023/05/31 15:06:11;;;;;;;5.23;2.07;;;32.80;44.30;;;;;;10104175;28;20041;-62
2023/05/31 15:11:01;;;;;;;1.83;1.63;;;33.30;44.30;;;;;;10103772;28;20059;-65
2023/05/31 15:15:52;;;;;;;7.50;1.63;;;33.80;44.20;;;;;;10103677;28;20131;-63
2023/05/31 15:20:43;;;;;;;3.53;1.70;;;33.30;44.30;;;;;;10104177;28;20564;-63
2023/05/31 15:25:34;;;;;;;4.17;1.77;;;33.30;43.90;;;;;;10103620;28;20083;-63
2023/05/31 15:30:24;;;;;;;2.57;1.90;;;33.30;43.80;;;;;;10103923;28;20410;-62
2023/05/31 15:35:15;;;;;;;4.70;1.70;;;33.90;43.50;;;;;;10083675;28;20172;-64
2023/05/31 15:40:06;;;;;;;5.30;2.50;;;33.90;43.50;;;;;;10106503;28;20451;-65
2023/05/31 15:44:57;;;;;;;4.60;2.08;;;34.20;43.40;;;;;;10104343;28;20108;-67
2023/05/31 15:49:48;;;;;;;5.17;1.80;;;34.80;42.90;;;;;;10093902;28;20128;-69
2023/05/31 15:54:38;;;;;;;4.47;2.17;;;35.20;42.60;;;;;;10093679;28;20078;-67
2023/05/31 15:59:31;;;;;;;4.33;1.80;;;35.20;42.20;;;;;;10071718;28;20044;-67
2023/05/31 16:04:22;;;;;;;4.25;1.85;;;35.20;41.80;;;;;;10089378;28;20055;-67
2023/05/31 16:09:12;;;;;;;8.77;1.80;;;35.80;41.30;;;;;;10085103;28;20021;-67
2023/05/31 16:14:03;;;;;;;5.77;1.77;;;36.40;40.90;;;;;;10103461;28;20127;-66
2023/05/31 16:18:55;;;;;;;3.80;1.67;;;37.10;40.00;;;;;;10107559;28;20124;-63
2023/05/31 16:23:45;;;;;;;4.93;2.10;;;38.10;39.50;;;;;;10103889;28;20086;-71
2023/05/31 16:28:36;;;;;;;3.37;2.50;;;38.50;39.00;;;;;;10084678;28;20093;-63
2023/05/31 16:33:27;;;;;;;1.70;1.40;;;38.50;38.80;;;;;;10061940;28;20034;-74
2023/05/31 16:38:17;;;;;;;5.82;1.85;;;38.50;38.50;;;;;;10064335;28;20651;-67
2023/05/31 16:43:08;;;;;;;6.63;1.80;;;38.30;38.50;;;;;;10092193;28;20040;-73
2023/05/31 16:47:59;;;;;;;2.83;2.17;;;38.50;38.20;;;;;;10100771;28;20147;-68
2023/05/31 16:52:51;;;;;;;4.85;2.95;;;37.80;38.20;;;;;;10099631;28;20033;-68
2023/05/31 16:57:41;;;;;;;2.80;1.80;;;38.00;38.10;;;;;;10082539;28;20379;-62
2023/05/31 17:02:33;;;;;;;5.40;1.95;;;38.00;38.00;;;;;;10076520;28;20037;-70
2023/05/31 17:07:23;;;;;;;5.28;1.77;;;37.90;37.90;;;;;;10084099;28;20132;-66
2023/05/31 17:12:14;;;;;;;6.25;2.15;;;38.10;38.00;;;;;;10099597;28;20104;-65
2023/05/31 17:17:05;;;;;;;2.42;1.52;;;37.40;37.70;;;;;;10104184;28;20064;-76
2023/05/31 17:21:57;;;;;;;2.20;1.67;;;36.90;37.80;;;;;;10099189;28;20025;-72
2023/05/31 17:26:47;;;;;;;2.30;1.42;;;36.80;37.80;;;;;;10081707;28;20493;-75
2023/05/31 17:31:38;;;;;;;3.27;1.47;;;36.60;37.70;;;;;;10079160;28;20022;-63
2023/05/31 17:36:29;;;;;;;4.82;1.60;;;36.30;37.70;;;;;;10091947;28;20300;-70
2023/05/31 17:41:21;;;;;;;2.20;1.50;;;35.50;37.90;;;;;;10098619;28;20550;-68
2023/05/31 17:46:11;;;;;;;5.10;2.25;;;34.70;38.10;;;;;;10098219;28;20056;-62
2023/05/31 17:51:02;;;;;;;3.77;1.57;;;34.00;38.60;;;;;;10099109;28;20355;-66
2023/05/31 17:55:53;;;;;;;2.80;1.77;;;33.50;38.80;;;;;;10098331;28;20039;-73
2023/05/31 18:00:43;;;;;;;2.65;1.50;;;31.40;40.60;;;;;;10098881;28;20035;-68
2023/05/31 18:05:34;;;;;;;2.72;1.40;;;30.00;40.40;;;;;;10080791;28;20025;-64
2023/05/31 18:10:25;;;;;;;3.13;1.25;;;29.00;40.80;;;;;;10099178;28;20033;-76
2023/05/31 18:15:15;;;;;;;7.40;2.75;;;28.40;41.10;;;;;;10086005;28;20129;-73
2023/05/31 18:20:07;;;;;;;3.03;1.80;;;28.20;41.40;;;;;;10084152;28;20045;-73
2023/05/31 18:24:58;;;;;;;4.13;1.42;;;27.90;41.90;;;;;;10101128;28;20025;-75
2023/05/31 18:29:49;;;;;;;4.72;1.63;;;27.90;41.90;;;;;;10082801;28;20037;-71
2023/05/31 18:34:40;;;;;;;3.38;1.75;;;27.50;42.40;;;;;;10072816;28;20045;-62
2023/05/31 18:39:30;;;;;;;3.22;1.40;;;27.40;42.60;;;;;;10103305;28;20133;-66
2023/05/31 18:44:21;;;;;;;3.47;1.60;;;27.20;43.00;;;;;;10088734;28;20084;-68
2023/05/31 18:49:12;;;;;;;2.10;1.02;;;27.00;43.40;;;;;;10104742;28;20124;-63
2023/05/31 18:54:03;;;;;;;3.85;1.35;;;26.90;43.60;;;;;;10105222;28;20475;-78
2023/05/31 18:58:55;;;;;;;2.47;1.50;;;26.70;43.90;;;;;;10120749;28;20041;-68
2023/05/31 19:03:46;;;;;;;3.72;1.58;;;26.50;44.10;;;;;;10105538;28;20063;-61
2023/05/31 19:08:36;;;;;;;2.78;1.92;;;26.50;44.40;;;;;;10100347;28;20014;-67
2023/05/31 19:13:27;;;;;;;3.67;1.92;;;26.50;44.50;;;;;;10099406;28;20059;-65
2023/05/31 19:18:18;;;;;;;2.63;1.67;;;26.40;44.80;;;;;;10078540;28;20034;-65
2023/05/31 19:23:12;;;;;;;3.58;1.60;;;26.20;45.10;;;;;;10094843;28;20028;-71
2023/05/31 19:28:05;;;;;;;4.95;2.10;;;25.90;45.50;;;;;;10101468;28;20025;-64
2023/05/31 19:32:56;;;;;;;2.42;1.65;;;25.80;45.70;;;;;;10083091;28;20064;-66
2023/05/31 19:37:47;;;;;;;3.75;1.40;;;25.70;45.90;;;;;;10103112;28;20036;-63
2023/05/31 19:42:41;;;;;;;3.95;2.00;;;25.70;46.20;;;;;;10072811;28;20052;-64
2023/05/31 19:47:31;;;;;;;2.55;1.90;;;25.50;46.40;;;;;;10104500;28;20419;-64
2023/05/31 19:52:22;;;;;;;2.28;1.75;;;25.50;46.50;;;;;;10104579;28;20033;-61
2023/05/31 19:57:13;;;;;;;6.70;1.77;;;25.30;46.80;;;;;;10103553;28;20087;-62
2023/05/31 20:02:04;;;;;;;3.35;1.55;;;25.20;47.00;;;;;;10100728;28;20346;-61
2023/05/31 20:06:55;;;;;;;3.78;1.70;;;25.00;47.30;;;;;;10098590;28;20368;-66
2023/05/31 20:11:48;;;;;;;7.25;1.70;;;25.00;47.40;;;;;;10090371;28;20030;-66
2023/05/31 20:16:39;;;;;;;2.30;1.38;;;25.00;47.50;;;;;;10106000;28;20056;-66
2023/05/31 20:21:30;;;;;;;4.57;1.63;;;24.90;47.70;;;;;;10084778;28;20040;-71
2023/05/31 20:26:24;;;;;;;4.28;1.73;;;24.70;48.00;;;;;;10080140;28;20063;-69
2023/05/31 20:31:15;;;;;;;6.40;1.55;;;24.60;48.20;;;;;;10105167;28;20440;-73
2023/05/31 20:36:06;;;;;;;7.50;1.60;;;24.60;48.40;;;;;;10075576;28;20057;-62
2023/05/31 20:40:57;;;;;;;5.20;1.63;;;24.60;48.50;;;;;;10075788;28;20396;-68
2023/05/31 20:45:48;;;;;;;1.67;1.30;;;24.50;48.70;;;;;;10094896;28;20035;-61
2023/05/31 20:50:38;;;;;;;2.22;1.30;;;24.30;48.90;;;;;;10088080;28;20028;-61
2023/05/31 20:55:30;;;;;;;4.30;1.63;;;24.30;48.90;;;;;;10100397;28;20103;-72
2023/05/31 21:00:24;;;;;;;3.90;1.20;;;24.30;48.90;;;;;;10115798;28;20092;-61
2023/05/31 21:05:15;;;;;;;2.90;1.20;;;24.20;49.20;;;;;;10070658;28;20369;-63
2023/05/31 21:10:06;;;;;;;3.85;1.67;;;24.10;49.40;;;;;;10093054;28;20275;-64
2023/05/31 21:14:56;;;;;;;4.80;1.50;;;24.10;49.30;;;;;;10106761;28;20057;-76
2023/05/31 21:19:47;;;;;;;5.45;2.03;;;24.10;49.60;;;;;;10099571;28;20452;-67
2023/05/31 21:24:38;;;;;;;2.83;1.73;;;23.90;49.90;;;;;;10086588;28;20322;-69
2023/05/31 21:29:28;;;;;;;3.83;2.65;;;23.80;50.10;;;;;;10099572;28;20067;-67
2023/05/31 21:34:20;;;;;;;4.75;2.08;;;23.80;50.20;;;;;;10071160;28;20083;-63
2023/05/31 21:39:11;;;;;;;6.47;2.38;;;23.60;50.30;;;;;;10069436;28;20040;-62
2023/05/31 21:44:01;;;;;;;3.15;1.42;;;23.60;50.50;;;;;;10084152;28;20511;-63
2023/05/31 21:48:52;;;;;;;4.90;2.08;;;23.60;50.50;;;;;;10095179;28;20372;-61
2023/05/31 21:53:43;;;;;;;9.10;2.55;;;23.50;50.80;;;;;;10099621;28;20017;-62
2023/05/31 21:58:33;;;;;;;3.97;1.48;;;23.60;50.80;;;;;;10092474;28;20116;-61
2023/05/31 22:03:24;;;;;;;3.28;2.03;;;23.50;50.90;;;;;;10106009;28;20120;-66
2023/05/31 22:08:15;;;;;;;2.28;1.30;;;23.40;51.20;;;;;;10095626;28;20029;-64
2023/05/31 22:13:05;;;;;;;2.80;1.52;;;23.20;51.70;;;;;;10107286;28;20059;-64
2023/05/31 22:17:57;;;;;;;3.90;1.40;;;23.00;52.10;;;;;;10099539;28;20264;-63
2023/05/31 22:22:49;;;;;;;7.32;1.65;;;22.90;52.40;;;;;;10093678;28;20112;-61
2023/05/31 22:27:40;;;;;;;2.70;1.90;;;22.90;52.40;;;;;;10105571;28;20125;-68
2023/05/31 22:32:31;;;;;;;2.10;1.30;;;22.80;52.50;;;;;;10080922;28;20104;-77
2023/05/31 22:37:21;;;;;;;4.93;2.03;;;22.90;52.50;;;;;;10088997;28;20089;-66
2023/05/31 22:42:12;;;;;;;4.85;1.80;;;22.90;52.80;;;;;;10108230;28;20025;-69
2023/05/31 22:47:04;;;;;;;2.22;1.42;;;22.80;52.80;;;;;;10075561;28;20124;-62
2023/05/31 22:51:58;;;;;;;3.40;2.17;;;22.70;53.10;;;;;;10095496;28;20016;-76
2023/05/31 22:56:49;;;;;;;4.40;2.33;;;22.60;53.20;;;;;;10087214;28;20123;-68
2023/05/31 23:01:40;;;;;;;5.13;1.95;;;22.50;53.40;;;;;;10086933;28;20112;-63
2023/05/31 23:06:32;;;;;;;3.30;1.60;;;22.50;53.50;;;;;;10086482;28;20039;-61
2023/05/31 23:11:29;;;;;;;2.67;1.45;;;22.50;53.50;;;;;;10090868;28;20029;-63
2023/05/31 23:16:19;;;;;;;2.92;1.67;;;22.40;53.80;;;;;;10106794;28;20110;-63
2023/05/31 23:21:11;;;;;;;4.20;1.58;;;22.40;54.00;;;;;;10104098;28;20029;-61
2023/05/31 23:26:01;;;;;;;4.22;1.70;;;22.30;54.10;;;;;;10089398;28;20029;-63
2023/05/31 23:30:52;;;;;;;4.68;1.67;;;22.00;54.60;;;;;;10088006;28;20494;-63
2023/05/31 23:35:43;;;;;;;5.95;1.45;;;22.00;54.80;;;;;;10103489;28;20040;-65
2023/05/31 23:40:34;;;;;;;2.63;1.63;;;21.80;55.10;;;;;;10103776;28;20270;-61
2023/05/31 23:45:24;;;;;;;2.63;1.92;;;21.70;55.40;;;;;;10104832;28;20475;-61
2023/05/31 23:50:15;;;;;;;3.05;1.80;;;21.70;55.60;;;;;;10102587;28;20025;-61
2023/05/31 23:55:06;;;;;;;3.95;1.60;;;21.70;55.60;;;;;;10092588;28;20025;-60
2023/05/31 23:59:57;;;;;;;4.13;1.52;;;21.60;56.00;;;;;;10097149;28;20495;-62
